Data for 12/29/2005

Time Sea-Level Adjusted Pressure Absolute Pressure Temperature Relative Humidity Dew Point   
(mb) (inHg) (mb) (inHg) (C) (F) (%) (C) (F)
00:05 1004 29.65 833 24.6 2 35.5 94 1.1 34
00:10 1004 29.65 833 24.6 2.1 35.8 95 1.4 34.5
00:15 1004 29.65 833 24.6 2.2 36 95 1.5 34.8
00:20 1004 29.65 833 24.6 2.2 35.9 96 1.7 35
00:25 1004 29.65 834 24.63 2 35.6 96 1.5 34.6
00:30 1005 29.68 834 24.63 1.5 34.8 96 1 33.7
00:35 1005 29.68 834 24.63 1 33.7 97 0.5 32.9
00:40 1005 29.68 834 24.63 0.7 33.2 98 0.3 32.6
00:45 1005 29.68 834 24.63 0.4 32.8 98 0.2 32.3
00:50 1005 29.68 834 24.63 0.4 32.7 98 0.1 32.3
00:55 1005 29.68 834 24.63 0.3 32.6 99 0.2 32.3
01:00 1005 29.68 834 24.63 0.3 32.5 99 0.2 32.3
01:05 1005 29.68 835 24.66 0.2 32.4 99 0.1 32.3
01:10 1005 29.68 835 24.66 0.2 32.3 99 0.1 32.1
01:15 1005 29.68 835 24.66 0.2 32.3 100 0.1 32.2
01:20 1005 29.68 835 24.66 0.1 32.2 100 0.1 32.2
01:25 1005 29.68 835 24.66 0.1 32.2 100 0.1 32.2
01:30 1006 29.71 835 24.66 0.1 32.2 100 0.1 32.2
01:35 1006 29.71 835 24.66 0.2 32.3 100 0.2 32.3
01:40 1006 29.71 835 24.66 0.2 32.3 100 0.2 32.3
01:45 1006 29.71 835 24.66 0.2 32.3 100 0.2 32.3
01:50 1006 29.71 835 24.66 0.2 32.3 100 0.2 32.3
01:55 1006 29.71 835 24.66 0.3 32.5 100 0.3 32.5
02:00 1006 29.71 835 24.66 0.3 32.6 100 0.3 32.6
02:05 1006 29.71 835 24.66 0.4 32.6 100 0.4 32.6
02:10 1006 29.71 835 24.66 0.3 32.6 100 0.3 32.6
02:15 1006 29.71 836 24.69 0.3 32.6 100 0.3 32.6
02:20 1007 29.74 836 24.69 0.3 32.6 100 0.3 32.6
02:25 1007 29.74 836 24.69 0.3 32.5 100 0.3 32.5
02:30 1007 29.74 836 24.69 0.4 32.6 100 0.4 32.6
02:35 1007 29.74 836 24.69 0.4 32.7 100 0.4 32.7
02:40 1007 29.74 836 24.69 0.3 32.6 100 0.3 32.6
02:45 1007 29.74 836 24.69 0.3 32.5 100 0.3 32.5
02:50 1007 29.74 836 24.69 0.3 32.6 100 0.3 32.6
02:55 1007 29.74 836 24.69 0.3 32.5 100 0.3 32.5
03:00 1007 29.74 836 24.69 0.3 32.5 100 0.3 32.5
03:05 1007 29.74 836 24.69 0.2 32.4 100 0.2 32.4
03:10 1007 29.74 837 24.72 0.2 32.4 100 0.2 32.4
03:15 1007 29.74 837 24.72 0.2 32.4 100 0.2 32.4
03:20 1007 29.74 837 24.72 0.2 32.3 100 0.2 32.3
03:25 1007 29.74 837 24.72 0.2 32.3 100 0.2 32.3
03:30 1008 29.77 837 24.72 0.2 32.3 100 0.2 32.3
03:35 1008 29.77 837 24.72 0.1 32.3 100 0.1 32.3
03:40 1008 29.77 837 24.72 0.2 32.3 100 0.2 32.3
03:45 1008 29.77 837 24.72 0.1 32.2 100 0.1 32.2
03:50 1008 29.77 837 24.72 0.1 32.2 100 0.1 32.2
03:55 1008 29.77 837 24.72 0.2 32.3 100 0.2 32.3
04:00 1008 29.77 837 24.72 0.1 32.2 100 0.1 32.2
04:05 1008 29.77 837 24.72 0.1 32.2 100 0.1 32.2
04:10 1008 29.77 837 24.72 0.1 32.1 100 0.1 32.1
04:15 1008 29.77 837 24.72 0.1 32.2 100 0.1 32.2
04:20 1008 29.77 837 24.72 0.1 32.1 100 0.1 32.1
04:25 1008 29.77 838 24.75 0.1 32.1 100 0.1 32.1
04:30 1008 29.77 838 24.75 0 32 100 0 32
04:35 1009 29.8 838 24.75 -0 32 100 -0 32
04:40 1009 29.8 838 24.75 -0 32 100 -0 32
04:45 1009 29.8 838 24.75 -0 32 100 -0 32
04:50 1009 29.8 838 24.75 -0.1 31.9 100 -0.1 31.9
04:55 1009 29.8 838 24.75 -0.1 31.8 100 -0.1 31.8
05:00 1009 29.8 838 24.75 -0.1 31.7 100 -0.1 31.7
05:05 1009 29.8 839 24.78 -0.2 31.7 100 -0.2 31.7
05:10 1009 29.8 839 24.78 -0.2 31.6 100 -0.2 31.6
05:15 1010 29.83 839 24.78 -0.3 31.4 100 -0.3 31.4
05:20 1010 29.83 839 24.78 -0.4 31.2 100 -0.4 31.2
05:25 1010 29.83 839 24.78 -0.5 31.1 100 -0.5 31.1
05:30 1010 29.83 839 24.78 -0.5 31 100 -0.5 31
05:35 1010 29.83 839 24.78 -0.6 31 100 -0.6 30.9
05:40 1010 29.83 839 24.78 -0.6 31 99 -0.7 30.8
05:45 1010 29.83 839 24.78 -0.5 31.1 98 -0.8 30.6
05:50 1010 29.83 839 24.78 -0.4 31.3 98 -0.7 30.7
05:55 1010 29.83 839 24.78 -0.4 31.3 97 -0.8 30.5
06:00 1010 29.83 839 24.78 -0.4 31.3 97 -0.8 30.6
06:05 1010 29.83 840 24.81 -0.3 31.5 97 -0.8 30.6
06:10 1010 29.83 840 24.81 -0.2 31.6 96 -0.7 30.7
06:15 1010 29.83 840 24.81 -0.2 31.6 95 -1 30.2
06:20 1011 29.85 840 24.81 -0.2 31.7 94 -1.1 30.1
06:25 1011 29.85 840 24.81 -0.2 31.7 93 -1.2 29.9
06:30 1011 29.85 840 24.81 -0.2 31.6 93 -1.2 29.8
06:35 1011 29.85 840 24.81 -0.2 31.6 94 -1 30.2
06:40 1011 29.85 840 24.81 -0.3 31.5 93 -1.3 29.7
06:45 1011 29.85 840 24.81 -0.3 31.5 92 -1.5 29.4
06:50 1011 29.85 840 24.81 -0.3 31.5 92 -1.5 29.3
06:55 1011 29.85 840 24.81 -0.3 31.4 92 -1.5 29.3
07:00 1011 29.85 840 24.81 -0.3 31.5 89 -1.8 28.7
07:05 1011 29.85 840 24.81 -0.3 31.5 88 -2 28.4
07:10 1011 29.85 841 24.83 -0.4 31.3 88 -2.1 28.2
07:15 1011 29.85 841 24.83 -0.4 31.3 88 -2.2 28.1
07:20 1011 29.85 841 24.83 -0.4 31.3 87 -2.3 27.9
07:25 1012 29.88 841 24.83 -0.4 31.3 87 -2.3 27.9
07:30 1012 29.88 841 24.83 -0.4 31.3 87 -2.4 27.7
07:35 1012 29.88 841 24.83 -0.4 31.3 86 -2.5 27.5
07:40 1012 29.88 841 24.83 -0.4 31.3 87 -2.3 27.8
07:45 1012 29.88 841 24.83 -0.4 31.3 86 -2.4 27.7
07:50 1012 29.88 841 24.83 -0.4 31.3 86 -2.4 27.7
07:55 1012 29.88 841 24.83 -0.4 31.2 86 -2.5 27.5
08:00 1012 29.88 841 24.83 -0.5 31.1 86 -2.5 27.5
08:05 1012 29.88 841 24.83 -0.5 31.1 85 -2.7 27.1
08:10 1012 29.88 841 24.83 -0.5 31 86 -2.6 27.2
08:15 1012 29.88 841 24.83 -0.7 30.8 86 -2.7 27.1
08:20 1012 29.88 841 24.83 -0.7 30.7 86 -2.8 26.9
08:25 1012 29.88 841 24.83 -0.8 30.6 86 -2.8 27
08:30 1012 29.88 841 24.83 -0.8 30.6 84 -3.1 26.4
08:35 1012 29.88 841 24.83 -0.8 30.6 85 -2.9 26.8
08:40 1012 29.88 841 24.83 -0.8 30.6 84 -3.1 26.5
08:45 1012 29.88 841 24.83 -0.8 30.5 86 -2.8 26.9
08:50 1012 29.88 841 24.83 -0.9 30.3 86 -2.9 26.7
08:55 1012 29.88 842 24.86 -0.9 30.4 84 -3.3 26.1
09:00 1012 29.88 842 24.86 -0.7 30.7 83 -3.2 26.2
09:05 1012 29.88 842 24.86 -0.7 30.7 82 -3.4 25.9
09:10 1012 29.88 842 24.86 -0.7 30.8 82 -3.4 25.9
09:15 1013 29.91 842 24.86 -0.7 30.8 80 -3.8 25.2
09:20 1013 29.91 842 24.86 -0.5 31.2 80 -3.5 25.6
09:25 1013 29.91 842 24.86 -0.5 31.2 81 -3.3 26.1
09:30 1013 29.91 842 24.86 -0.5 31 83 -3 26.5
09:35 1013 29.91 842 24.86 -0.7 30.8 83 -3.2 26.3
09:40 1013 29.91 842 24.86 -0.7 30.7 83 -3.2 26.2
09:45 1013 29.91 842 24.86 -0.7 30.8 82 -3.4 25.9
09:50 1013 29.91 842 24.86 -0.5 31 81 -3.3 26
09:55 1013 29.91 842 24.86 -0.6 31 81 -3.4 26
10:00 1013 29.91 842 24.86 -0.6 31 82 -3.3 26
10:05 1013 29.91 842 24.86 -0.6 30.9 81 -3.5 25.8
10:10 1013 29.91 843 24.89 -0.6 30.9 80 -3.6 25.5
10:15 1013 29.91 843 24.89 -0.6 31 80 -3.6 25.6
10:20 1013 29.91 843 24.89 -0.5 31 79 -3.7 25.4
10:25 1014 29.94 843 24.89 -0.4 31.4 77 -3.9 25
10:30 1014 29.94 843 24.89 -0.2 31.7 76 -3.9 25
10:35 1014 29.94 843 24.89 -0 32 76 -3.7 25.4
10:40 1014 29.94 843 24.89 0.1 32.2 76 -3.7 25.3
10:45 1014 29.94 843 24.89 0.2 32.3 76 -3.6 25.6
10:50 1014 29.94 843 24.89 0.2 32.4 75 -3.7 25.3
10:55 1014 29.94 843 24.89 0.2 32.4 76 -3.5 25.7
11:00 1014 29.94 843 24.89 0.2 32.4 76 -3.6 25.6
11:05 1014 29.94 843 24.89 0.2 32.4 77 -3.3 26
11:10 1014 29.94 843 24.89 0.2 32.4 77 -3.4 25.9
11:15 1014 29.94 843 24.89 0.2 32.4 80 -2.9 26.8
11:20 1014 29.94 843 24.89 0.3 32.5 79 -3 26.6
11:25 1014 29.94 843 24.89 0.3 32.5 78 -3.1 26.5
11:30 1014 29.94 843 24.89 0.2 32.4 78 -3.2 26.3
11:35 1014 29.94 843 24.89 0.3 32.5 78 -3.2 26.3
11:40 1014 29.94 843 24.89 0.4 32.7 75 -3.5 25.7
11:45 1014 29.94 843 24.89 0.5 33 75 -3.4 25.8
11:50 1014 29.94 843 24.89 0.6 33.2 76 -3.2 26.3
11:55 1014 29.94 843 24.89 0.6 33.1 76 -3.1 26.3
12:00 1014 29.94 843 24.89 0.6 33.1 77 -3 26.6
12:05 1014 29.94 843 24.89 0.6 33.1 77 -3 26.6
12:10 1014 29.94 843 24.89 0.6 33 77 -3 26.5
12:15 1014 29.94 843 24.89 0.8 33.5 75 -3 26.5
12:20 1014 29.94 843 24.89 1.1 33.9 74 -3.1 26.5
12:25 1014 29.94 843 24.89 1.2 34.1 68 -4 24.8
12:30 1014 29.94 843 24.89 1.3 34.4 65 -4.5 23.9
12:35 1014 29.94 843 24.89 1.5 34.7 62 -4.9 23.2
12:40 1014 29.94 843 24.89 1.7 35.1 62 -4.7 23.5
12:45 1014 29.94 843 24.89 1.8 35.2 62 -4.7 23.5
12:50 1014 29.94 843 24.89 1.7 35 64 -4.4 24.1
12:55 1013 29.91 843 24.89 1.5 34.6 66 -4.3 24.3
13:00 1013 29.91 843 24.89 1.3 34.4 66 -4.4 24.1
13:05 1014 29.94 843 24.89 1.3 34.4 66 -4.3 24.2
13:10 1014 29.94 843 24.89 1.4 34.6 68 -3.9 25
13:15 1014 29.94 843 24.89 1.4 34.5 69 -3.8 25.2
13:20 1013 29.91 843 24.89 1.2 34.2 70 -3.7 25.4
13:25 1013 29.91 843 24.89 1.3 34.3 69 -3.8 25.1
13:30 1014 29.94 843 24.89 1.2 34.2 69 -3.8 25.1
13:35 1014 29.94 843 24.89 1.2 34.2 69 -3.8 25.1
13:40 1014 29.94 843 24.89 1.2 34.2 70 -3.7 25.3
13:45 1014 29.94 843 24.89 1.3 34.3 68 -3.9 24.9
13:50 1014 29.94 843 24.89 1.3 34.3 66 -4.4 24.1
13:55 1014 29.94 843 24.89 1.4 34.5 65 -4.4 24.2
14:00 1014 29.94 843 24.89 1.5 34.6 65 -4.4 24
14:05 1014 29.94 843 24.89 1.5 34.7 64 -4.6 23.8
14:10 1014 29.94 843 24.89 1.3 34.3 62 -5.2 22.7
14:15 1014 29.94 843 24.89 1.2 34.1 61 -5.6 22
14:20 1014 29.94 843 24.89 1.2 34.2 60 -5.7 21.7
14:25 1014 29.94 843 24.89 1.3 34.3 59 -5.9 21.4
14:30 1014 29.94 843 24.89 1.3 34.3 60 -5.5 22
14:35 1014 29.94 843 24.89 1.4 34.4 63 -4.8 23.3
14:40 1014 29.94 843 24.89 1.2 34.1 63 -5.1 22.8
14:45 1014 29.94 843 24.89 1 33.8 64 -5 23.1
14:50 1014 29.94 843 24.89 0.9 33.6 64 -5.2 22.7
14:55 1014 29.94 843 24.89 0.8 33.4 66 -4.8 23.4
15:00 1014 29.94 843 24.89 0.7 33.3 65 -5.1 22.8
15:05 1014 29.94 843 24.89 0.5 32.9 67 -4.9 23.1
15:10 1014 29.94 843 24.89 0.3 32.6 69 -4.7 23.6
15:15 1014 29.94 843 24.89 0.2 32.4 69 -4.9 23.2
15:20 1014 29.94 843 24.89 0.3 32.6 68 -4.8 23.3
15:25 1014 29.94 843 24.89 0.4 32.7 69 -4.6 23.7
15:30 1014 29.94 843 24.89 0.3 32.5 70 -4.5 23.8
15:35 1014 29.94 843 24.89 0.3 32.5 67 -5.1 22.8
15:40 1014 29.94 843 24.89 0.4 32.7 68 -4.9 23.1
15:45 1014 29.94 843 24.89 0.4 32.7 66 -5.2 22.6
15:50 1014 29.94 843 24.89 0.4 32.7 68 -4.9 23.2
15:55 1014 29.94 843 24.89 0.2 32.3 67 -5.2 22.7
16:00 1014 29.94 843 24.89 0.2 32.4 68 -5 23.1
16:05 1014 29.94 843 24.89 0.2 32.4 67 -5.2 22.7
16:10 1014 29.94 843 24.89 0.2 32.3 68 -5.1 22.8
16:15 1014 29.94 843 24.89 0.2 32.3 68 -5.1 22.9
16:20 1014 29.94 843 24.89 0.2 32.4 68 -5 23.1
16:25 1014 29.94 843 24.89 0.1 32.2 69 -4.9 23.2
16:30 1014 29.94 843 24.89 -0 31.9 71 -4.8 23.4
16:35 1014 29.94 843 24.89 -0.1 31.7 70 -4.9 23.2
16:40 1014 29.94 843 24.89 -0.1 31.9 70 -4.9 23.2
16:45 1014 29.94 843 24.89 0 32 70 -4.8 23.3
16:50 1014 29.94 843 24.89 -0.1 31.9 68 -5.3 22.5
16:55 1014 29.94 843 24.89 0 32 67 -5.4 22.3
17:00 1014 29.94 843 24.89 -0.1 31.9 69 -5.1 22.8
17:05 1014 29.94 843 24.89 -0.3 31.5 68 -5.5 22.1
17:10 1014 29.94 843 24.89 -0.4 31.3 66 -5.9 21.3
17:15 1014 29.94 843 24.89 -0.3 31.5 64 -6.2 20.8
17:20 1014 29.94 843 24.89 -0.1 31.8 64 -6 21.1
17:25 1014 29.94 843 24.89 -0.1 31.8 65 -5.9 21.3
17:30 1014 29.94 843 24.89 -0.1 31.8 66 -5.7 21.8
17:35 1014 29.94 843 24.89 -0.2 31.6 67 -5.7 21.8
17:40 1014 29.94 843 24.89 -0.3 31.4 66 -5.9 21.4
17:45 1014 29.94 843 24.89 -0.3 31.4 67 -5.7 21.7
17:50 1014 29.94 843 24.89 -0.4 31.2 68 -5.7 21.7
17:55 1014 29.94 843 24.89 -0.5 31.1 68 -5.7 21.7
18:00 1014 29.94 843 24.89 -0.6 31 69 -5.5 22.1
18:05 1014 29.94 843 24.89 -0.7 30.8 69 -5.6 21.8
18:10 1014 29.94 843 24.89 -0.8 30.6 70 -5.7 21.8
18:15 1014 29.94 843 24.89 -0.8 30.6 68 -6 21.2
18:20 1014 29.94 843 24.89 -0.8 30.6 67 -6.1 21
18:25 1014 29.94 843 24.89 -0.8 30.6 67 -6.1 21
18:30 1014 29.94 843 24.89 -0.7 30.7 69 -5.7 21.8
18:35 1014 29.94 843 24.89 -0.7 30.8 69 -5.6 22
18:40 1014 29.94 843 24.89 -0.7 30.7 68 -5.9 21.4
18:45 1014 29.94 843 24.89 -0.8 30.5 67 -6.2 20.8
18:50 1014 29.94 843 24.89 -0.8 30.5 66 -6.4 20.5
18:55 1014 29.94 843 24.89 -0.9 30.3 67 -6.3 20.6
19:00 1014 29.94 843 24.89 -1 30.1 67 -6.3 20.6
19:05 1014 29.94 843 24.89 -1.1 30 68 -6.3 20.6
19:10 1014 29.94 843 24.89 -1.1 29.9 67 -6.5 20.4
19:15 1014 29.94 843 24.89 -1.2 29.8 68 -6.4 20.4
19:20 1014 29.94 843 24.89 -1.3 29.7 69 -6.3 20.7
19:25 1014 29.94 843 24.89 -1.4 29.4 71 -6.1 21
19:30 1014 29.94 843 24.89 -1.5 29.2 70 -6.3 20.6
19:35 1014 29.94 843 24.89 -1.7 29 69 -6.7 19.9
19:40 1014 29.94 843 24.89 -1.8 28.8 69 -6.7 19.9
19:45 1014 29.94 843 24.89 -2 28.5 71 -6.6 20.1
19:50 1014 29.94 843 24.89 -1.8 28.7 72 -6.3 20.7
19:55 1014 29.94 843 24.89 -1.7 29 71 -6.2 20.8
20:00 1014 29.94 843 24.89 -1.7 29 71 -6.2 20.8
20:05 1014 29.94 843 24.89 -1.7 29 71 -6.3 20.7
20:10 1014 29.94 843 24.89 -1.8 28.8 71 -6.3 20.6
20:15 1014 29.94 843 24.89 -1.9 28.5 70 -6.7 20
20:20 1013 29.91 843 24.89 -1.9 28.6 70 -6.7 20
20:25 1013 29.91 843 24.89 -1.9 28.6 70 -6.7 20
20:30 1014 29.94 843 24.89 -2.1 28.3 74 -6.1 21
20:35 1013 29.91 843 24.89 -2.4 27.6 76 -6.1 21
20:40 1014 29.94 843 24.89 -2.7 27.2 76 -6.4 20.5
20:45 1014 29.94 843 24.89 -2.8 27 74 -6.8 19.7
20:50 1014 29.94 843 24.89 -2.6 27.4 73 -6.7 19.9
20:55 1014 29.94 843 24.89 -2.6 27.3 73 -6.7 19.9
21:00 1014 29.94 843 24.89 -2.6 27.4 71 -7.2 19.1
21:05 1014 29.94 843 24.89 -2.3 27.9 70 -7 19.4
21:10 1014 29.94 843 24.89 -2.5 27.5 72 -6.8 19.8
21:15 1014 29.94 843 24.89 -2.9 26.7 77 -6.5 20.4
21:20 1014 29.94 843 24.89 -3.1 26.5 75 -6.8 19.7
21:25 1013 29.91 843 24.89 -2.8 26.9 72 -7.2 19
21:30 1013 29.91 843 24.89 -3.1 26.4 72 -7.4 18.7
21:35 1013 29.91 842 24.86 -3.3 26.1 73 -7.4 18.7
21:40 1013 29.91 842 24.86 -3.7 25.3 75 -7.5 18.6
21:45 1013 29.91 842 24.86 -3.9 24.9 77 -7.5 18.6
21:50 1013 29.91 842 24.86 -4 24.9 77 -7.4 18.7
21:55 1013 29.91 842 24.86 -3.8 25.2 78 -7.1 19.2
22:00 1013 29.91 842 24.86 -3.8 25.2 78 -7.1 19.2
22:05 1013 29.91 842 24.86 -3.8 25.2 78 -7 19.4
22:10 1013 29.91 842 24.86 -3.8 25.1 79 -7 19.3
22:15 1013 29.91 842 24.86 -3.9 25.1 79 -7 19.4
22:20 1013 29.91 842 24.86 -3.9 24.9 79 -7 19.4
22:25 1013 29.91 842 24.86 -4 24.7 80 -7 19.4
22:30 1013 29.91 842 24.86 -4 24.8 80 -7 19.4
22:35 1013 29.91 842 24.86 -4.1 24.7 80 -7 19.4
22:40 1013 29.91 842 24.86 -3.9 24.9 79 -7.1 19.2
22:45 1013 29.91 842 24.86 -3.7 25.3 78 -7 19.4
22:50 1013 29.91 842 24.86 -3.7 25.3 78 -7.1 19.3
22:55 1013 29.91 842 24.86 -3.7 25.3 77 -7.1 19.2
23:00 1013 29.91 842 24.86 -3.5 25.7 74 -7.6 18.4
23:05 1013 29.91 842 24.86 -3.1 26.5 70 -7.8 18
23:10 1013 29.91 842 24.86 -3.2 26.2 72 -7.5 18.5
23:15 1013 29.91 842 24.86 -3.2 26.3 70 -7.9 17.8
23:20 1013 29.91 842 24.86 -3.3 26.1 70 -8 17.6
23:25 1013 29.91 842 24.86 -3.4 25.9 70 -8.1 17.4
23:30 1013 29.91 842 24.86 -3.4 25.8 71 -8 17.5
23:35 1013 29.91 842 24.86 -3.4 25.9 71 -8 17.6
23:40 1013 29.91 842 24.86 -3.4 25.8 71 -7.9 17.7
23:45 1013 29.91 842 24.86 -3.6 25.5 72 -8 17.6
23:50 1013 29.91 842 24.86 -3.8 25.2 72 -8 17.5
23:55 1013 29.91 842 24.86 -3.8 25.2 73 -8 17.7
24:00 1013 29.91 842 24.86 -3.8 25.1 74 -7.9 17.8